Ali Cat — MZCL8 — position and weather

sailwx.info

Track history (hours):
 
Tides and Currents Weather Stations Pressure Air Temp Water Temp Dewpoint Dewpoint Depression Visibility Wind Speed Wind Dir Waves Ship Positions

Ali Cat

Operator: MRCC Clyde

Last reported at 2019-Jun-16 14:11 UTC. Time now 2019-Jun-16 14:56 UTC.
Position N 55°58' W 004°49'.

Length 19 m.

Type: Passenger vessel. MMSI: 235056506.

Date/timePositionNaut miles runAvg speedWind from/ knotsBaromVisibWave heightAir tempDewpointWater temp
2019-Jun-16 14:11N 55°58' W 004°49'210.6
2019-Jun-16 14:00N 55°57' W 004°53'1 0.0
2019-Jun-15 20:53N 55°58' W 004°52'1 0.6
2019-Jun-15 19:38N 55°58' W 004°50'110.9
2019-Jun-15 19:30N 55°57' W 004°53'0 0.2
2019-Jun-15 18:30N 55°57' W 004°52'0 0.2
2019-Jun-15 17:30N 55°57' W 004°53'2 2.6
2019-Jun-15 16:42N 55°58' W 004°49'310.1
2019-Jun-15 16:27N 55°57' W 004°54'1 1.5
2019-Jun-15 15:34N 55°58' W 004°51'110.3
2019-Jun-15 15:29N 55°57' W 004°53'2 0.8
2019-Jun-15 13:10N 55°58' W 004°50'2 9.9
2019-Jun-15 12:59N 55°57' W 004°53'1 1.1
2019-Jun-15 11:37N 55°58' W 004°50'110.6
2019-Jun-15 11:29N 55°57' W 004°53'2 2.3
2019-Jun-15 10:40N 55°58' W 004°49'210.5
2019-Jun-15 10:30N 55°57' W 004°52'1 1.1
2019-Jun-15 09:36N 55°58' W 004°51'110.8
2019-Jun-15 09:29N 55°57' W 004°53'1 0.7
2019-Jun-15 08:33N 55°57' W 004°52'110.7
2019-Jun-15 08:29N 55°57' W 004°53'2 3.6
2019-Jun-15 07:54N 55°58' W 004°49'2 4.3
2019-Jun-15 07:30N 55°57' W 004°52'1 0.9
2019-Jun-15 06:30N 55°58' W 004°51'1 1.8
2019-Jun-15 06:00N 55°57' W 004°52'1 0.1
2019-Jun-14 20:54N 55°58' W 004°51'2 1.4
2019-Jun-14 19:24N 55°57' W 004°54'0 0.5
2019-Jun-14 18:28N 55°57' W 004°54'2 2.5
2019-Jun-14 17:37N 55°58' W 004°50'211.4
2019-Jun-14 17:28N 55°57' W 004°53'1 1.3
2019-Jun-14 16:35N 55°58' W 004°51'111.0
2019-Jun-14 16:29N 55°57' W 004°53'0 0.1
2019-Jun-14 15:29N 55°57' W 004°53'1 0.8
2019-Jun-14 14:07N 55°58' W 004°51'110.1
2019-Jun-14 13:59N 55°57' W 004°54'2 2.6
2019-Jun-14 13:10N 55°58' W 004°50'210.4
2019-Jun-14 13:00N 55°57' W 004°53'0 0.3
2019-Jun-14 11:31N 55°57' W 004°52'010.8
2019-Jun-14 11:29N 55°57' W 004°53'1 0.9
2019-Jun-14 10:34N 55°58' W 004°51'110.9
2019-Jun-14 10:26N 55°57' W 004°54'1 1.0
2019-Jun-14 09:31N 55°57' W 004°52'011.4
2019-Jun-14 09:30N 55°57' W 004°53'2 2.4
2019-Jun-14 08:41N 55°58' W 004°49'210.9
2019-Jun-14 08:28N 55°57' W 004°53'1 0.7
2019-Jun-14 07:32N 55°57' W 004°52'111.2
2019-Jun-14 07:29N 55°57' W 004°53'1 1.0
2019-Jun-14 06:29N 55°58' W 004°51'1 0.1
2019-Jun-13 20:57N 55°58' W 004°50'1 0.4
2019-Jun-13 19:33N 55°58' W 004°51'110.8
2019-Jun-13 19:30N 55°57' W 004°52'1 0.9
2019-Jun-13 18:35N 55°58' W 004°51'110.9
2019-Jun-13 18:28N 55°57' W 004°53'2 3.1
2019-Jun-13 17:57N 55°58' W 004°50'1 2.6
2019-Jun-13 17:30N 55°57' W 004°52'1 0.8
2019-Jun-13 16:34N 55°58' W 004°51'110.8
2019-Jun-13 16:28N 55°57' W 004°53'1 1.2
2019-Jun-13 15:35N 55°58' W 004°51'110.6
2019-Jun-13 15:28N 55°57' W 004°53'1 0.2
2019-Jun-13 11:34N 55°57' W 004°52'110.3
2019-Jun-13 11:30N 55°57' W 004°53'1 1.1
2019-Jun-13 10:36N 55°58' W 004°51'110.0
2019-Jun-13 10:29N 55°57' W 004°53'0 0.5
2019-Jun-13 09:32N 55°57' W 004°52'010.2
2019-Jun-13 09:30N 55°57' W 004°53'1 1.2
2019-Jun-13 08:37N 55°57' W 004°51'1 9.8
2019-Jun-13 08:30N 55°57' W 004°53'1 1.4
2019-Jun-13 07:38N 55°57' W 004°51'1 9.9
2019-Jun-13 07:30N 55°57' W 004°53'1 2.3
2019-Jun-13 07:00N 55°58' W 004°51'1 1.6
2019-Jun-13 06:26N 55°57' W 004°52'0 0.4
2019-Jun-13 05:59N 55°57' W 004°53'1 0.1
2019-Jun-12 20:55N 55°58' W 004°51'1 1.1
2019-Jun-12 20:21N 55°57' W 004°52'1 0.6
2019-Jun-12 19:29N 55°57' W 004°53'0 0.3
2019-Jun-12 18:27N 55°57' W 004°53'1 1.3
2019-Jun-12 17:33N 55°57' W 004°51'010.0
2019-Jun-12 17:30N 55°57' W 004°52'1 1.8
2019-Jun-12 16:59N 55°58' W 004°51'1 2.4
2019-Jun-12 16:30N 55°57' W 004°53'0 0.5
2019-Jun-12 15:32N 55°57' W 004°52'010.1
2019-Jun-12 15:30N 55°57' W 004°52'1 1.1
2019-Jun-12 14:09N 55°58' W 004°50'2 9.9
2019-Jun-12 14:00N 55°57' W 004°53'1 0.8
2019-Jun-12 13:05N 55°57' W 004°51'1 9.5
2019-Jun-12 13:00N 55°57' W 004°53'1 0.9
2019-Jun-12 11:37N 55°57' W 004°51'1 9.8
2019-Jun-12 11:29N 55°57' W 004°53'2 2.8
2019-Jun-12 10:56N 55°58' W 004°50'1 3.4
2019-Jun-12 10:30N 55°57' W 004°53'1 2.2
2019-Jun-12 09:57N 55°58' W 004°51'1 2.8
2019-Jun-12 09:30N 55°57' W 004°53'2 2.3
2019-Jun-12 08:41N 55°58' W 004°50'2 9.9
2019-Jun-12 08:29N 55°57' W 004°53'1 1.3
2019-Jun-12 07:36N 55°57' W 004°51'1 9.8
2019-Jun-12 07:30N 55°57' W 004°53'2 2.3
2019-Jun-12 06:36N 55°58' W 004°49'110.5
2019-Jun-12 06:29N 55°57' W 004°51'1 0.8
2019-Jun-12 05:52N 55°58' W 004°50'1 0.1
2019-Jun-11 20:51N 55°57' W 004°52'1 1.9
2019-Jun-11 20:24N 55°58' W 004°52'1 0.9
2019-Jun-11 19:31N 55°57' W 004°52'010.1
2019-Jun-11 19:30N 55°57' W 004°53'1 1.0
2019-Jun-11 18:35N 55°58' W 004°51'110.1
2019-Jun-11 18:28N 55°57' W 004°53'1 1.6
2019-Jun-11 17:37N 55°58' W 004°51'1 9.6
2019-Jun-11 17:29N 55°57' W 004°53'1 0.5
2019-Jun-11 16:32N 55°57' W 004°52'010.1
2019-Jun-11 16:30N 55°57' W 004°53'0 0.2
2019-Jun-11 15:31N 55°57' W 004°52'010.4
2019-Jun-11 15:29N 55°57' W 004°53'1 0.3
2019-Jun-11 14:01N 55°57' W 004°52'110.2
2019-Jun-11 13:58N 55°57' W 004°53'2 3.0
2019-Jun-11 13:28N 55°58' W 004°51'2 2.9
2019-Jun-11 12:56N 55°57' W 004°53'1 0.6
2019-Jun-11 11:31N 55°57' W 004°52'011.1
2019-Jun-11 11:29N 55°57' W 004°52'1 1.6
2019-Jun-11 10:38N 55°58' W 004°50'110.8
2019-Jun-11 10:30N 55°57' W 004°52'1 1.6
2019-Jun-11 10:00N 55°58' W 004°51'1 1.8
2019-Jun-11 09:30N 55°57' W 004°53'1 0.8
2019-Jun-11 08:34N 55°57' W 004°51'110.1
2019-Jun-11 08:29N 55°57' W 004°53'1 1.2
2019-Jun-11 07:35N 55°58' W 004°51'110.6
2019-Jun-11 07:30N 55°57' W 004°53'1 1.1
2019-Jun-11 06:31N 55°58' W 004°51'011.2
2019-Jun-11 06:30N 55°57' W 004°51'1 2.3
2019-Jun-11 06:00N 55°57' W 004°53'1 0.1
2019-Jun-10 20:51N 55°57' W 004°52'1 1.0
2019-Jun-10 19:38N 55°58' W 004°50'1 9.8
2019-Jun-10 19:29N 55°57' W 004°53'0 0.1
2019-Jun-10 18:30N 55°57' W 004°53'0 0.5
2019-Jun-10 17:32N 55°57' W 004°52'110.0
2019-Jun-10 17:28N 55°57' W 004°53'2 1.8
2019-Jun-10 16:38N 55°58' W 004°50'210.0
2019-Jun-10 16:28N 55°57' W 004°53'1 1.4
2019-Jun-10 15:36N 55°58' W 004°51'210.3
2019-Jun-10 15:24N 55°57' W 004°54'3 1.3
2019-Jun-10 13:10N 55°58' W 004°49'210.5
2019-Jun-10 12:58N 55°57' W 004°53'1 0.5
2019-Jun-10 11:32N 55°57' W 004°52'110.3
2019-Jun-10 11:29N 55°57' W 004°52'2 2.4
2019-Jun-10 10:41N 55°58' W 004°49'210.2
2019-Jun-10 10:29N 55°57' W 004°53'1 1.5
2019-Jun-10 10:00N 55°58' W 004°52'1 1.6
2019-Jun-10 09:29N 55°57' W 004°53'1 1.3
2019-Jun-10 08:35N 55°58' W 004°51'110.7
2019-Jun-10 08:29N 55°57' W 004°53'1 2.0
2019-Jun-10 07:57N 55°58' W 004°51'1 1.8
2019-Jun-10 07:30N 55°57' W 004°52'1 0.8
2019-Jun-10 06:30N 55°58' W 004°51'1 2.0
2019-Jun-10 05:58N 55°57' W 004°53'1 0.1
2019-Jun-09 15:06N 55°58' W 004°50'111.0
2019-Jun-09 14:59N 55°57' W 004°53'1 0.8
2019-Jun-09 13:55N 55°57' W 004°54'1 1.6
2019-Jun-09 13:02N 55°57' W 004°52'011.5
2019-Jun-09 13:00N 55°57' W 004°52'2 0.1
2019-Jun-08 20:40N 55°57' W 004°55'2 2.0
2019-Jun-08 19:33N 55°58' W 004°51'110.4
2019-Jun-08 19:30N 55°57' W 004°52'1 0.6
2019-Jun-08 18:27N 55°57' W 004°53'1 0.8
2019-Jun-08 17:32N 55°57' W 004°52'010.2
2019-Jun-08 17:29N 55°57' W 004°53'1 1.5
2019-Jun-08 16:36N 55°58' W 004°51'210.4
2019-Jun-08 16:26N 55°57' W 004°54'2 1.8
2019-Jun-08 15:35N 55°58' W 004°51'110.5
2019-Jun-08 15:31N 55°57' W 004°52'1 0.2
2019-Jun-08 11:33N 55°58' W 004°51'110.8
2019-Jun-08 11:30N 55°57' W 004°52'1 2.0
2019-Jun-08 10:58N 55°58' W 004°51'1 2.8
2019-Jun-08 10:28N 55°57' W 004°53'2 2.8
2019-Jun-08 09:40N 55°58' W 004°49'210.9
2019-Jun-08 09:30N 55°57' W 004°52'2 2.1
2019-Jun-08 08:40N 55°58' W 004°49'211.1
2019-Jun-08 08:27N 55°57' W 004°53'2 3.5
2019-Jun-08 07:58N 55°58' W 004°51'1 2.9
2019-Jun-08 07:28N 55°57' W 004°53'1 1.1
2019-Jun-08 06:29N 55°57' W 004°51'0 0.0
2019-Jun-07 20:55N 55°57' W 004°51'2 5.0
2019-Jun-07 20:30N 55°57' W 004°55'2 2.5
2019-Jun-07 19:36N 55°58' W 004°51'1 9.9
2019-Jun-07 19:30N 55°57' W 004°52'1 1.4
2019-Jun-07 18:38N 55°58' W 004°50'1 9.3
2019-Jun-07 18:30N 55°57' W 004°52'2 2.4
2019-Jun-07 17:43N 55°58' W 004°49'2 9.5
2019-Jun-07 17:30N 55°57' W 004°53'1 1.3
2019-Jun-07 16:37N 55°58' W 004°51'1 9.6
2019-Jun-07 16:29N 55°57' W 004°53'2 2.5
2019-Jun-07 15:42N 55°58' W 004°49'2 9.6
2019-Jun-07 15:27N 55°57' W 004°53'1 1.1
2019-Jun-07 14:06N 55°58' W 004°51'2 9.9
2019-Jun-07 13:57N 55°57' W 004°53'2 1.9
2019-Jun-07 13:06N 55°58' W 004°51'110.3
2019-Jun-07 12:59N 55°57' W 004°53'0 0.2
2019-Jun-07 11:30N 55°57' W 004°52'0 0.1
2019-Jun-07 10:29N 55°57' W 004°53'1 1.5
2019-Jun-07 09:36N 55°58' W 004°50'110.7
2019-Jun-07 09:30N 55°57' W 004°52'0 0.4
2019-Jun-07 08:33N 55°58' W 004°52'110.5
2019-Jun-07 08:29N 55°57' W 004°53'2 1.8
2019-Jun-07 07:39N 55°58' W 004°50'2 9.8
2019-Jun-07 07:26N 55°57' W 004°54'2 2.9
2019-Jun-07 06:35N 55°58' W 004°50'210.0
2019-Jun-07 06:25N 55°57' W 004°52'1 0.1
2019-Jun-06 20:56N 55°58' W 004°50'2 1.3
2019-Jun-06 19:25N 55°57' W 004°54'0 0.2
2019-Jun-06 18:27N 55°57' W 004°53'0 0.5
2019-Jun-06 17:28N 55°57' W 004°53'2 2.9
2019-Jun-06 16:57N 55°58' W 004°51'2 3.1
2019-Jun-06 16:28N 55°57' W 004°53'2 2.8
2019-Jun-06 15:41N 55°58' W 004°49'210.4
2019-Jun-06 15:29N 55°57' W 004°53'  
Track history (hours):
 
Tides and Currents Weather Stations Pressure Air Temp Water Temp Dewpoint Dewpoint Depression Visibility Wind Speed Wind Dir Waves Ship Positions

Ali Cat

Operator: MRCC Clyde

Last reported at 2019-Jun-16 14:11 UTC. Time now 2019-Jun-16 14:56 UTC.
Position N 55°58' W 004°49'.

Length 19 m.

Type: Passenger vessel. MMSI: 235056506.

Date/timePositionNaut miles runAvg speedWind from/ knotsBaromVisibWave heightAir tempDewpointWater temp
2019-Jun-16 14:11N 55°58' W 004°49'210.6
2019-Jun-16 14:00N 55°57' W 004°53'1 0.0
2019-Jun-15 20:53N 55°58' W 004°52'1 0.6
2019-Jun-15 19:38N 55°58' W 004°50'110.9
2019-Jun-15 19:30N 55°57' W 004°53'0 0.2
2019-Jun-15 18:30N 55°57' W 004°52'0 0.2
2019-Jun-15 17:30N 55°57' W 004°53'2 2.6
2019-Jun-15 16:42N 55°58' W 004°49'310.1
2019-Jun-15 16:27N 55°57' W 004°54'1 1.5
2019-Jun-15 15:34N 55°58' W 004°51'110.3
2019-Jun-15 15:29N 55°57' W 004°53'2 0.8
2019-Jun-15 13:10N 55°58' W 004°50'2 9.9
2019-Jun-15 12:59N 55°57' W 004°53'1 1.1
2019-Jun-15 11:37N 55°58' W 004°50'110.6
2019-Jun-15 11:29N 55°57' W 004°53'2 2.3
2019-Jun-15 10:40N 55°58' W 004°49'210.5
2019-Jun-15 10:30N 55°57' W 004°52'1 1.1
2019-Jun-15 09:36N 55°58' W 004°51'110.8
2019-Jun-15 09:29N 55°57' W 004°53'1 0.7
2019-Jun-15 08:33N 55°57' W 004°52'110.7
2019-Jun-15 08:29N 55°57' W 004°53'2 3.6
2019-Jun-15 07:54N 55°58' W 004°49'2 4.3
2019-Jun-15 07:30N 55°57' W 004°52'1 0.9
2019-Jun-15 06:30N 55°58' W 004°51'1 1.8
2019-Jun-15 06:00N 55°57' W 004°52'1 0.1
2019-Jun-14 20:54N 55°58' W 004°51'2 1.4
2019-Jun-14 19:24N 55°57' W 004°54'0 0.5
2019-Jun-14 18:28N 55°57' W 004°54'2 2.5
2019-Jun-14 17:37N 55°58' W 004°50'211.4
2019-Jun-14 17:28N 55°57' W 004°53'1 1.3
2019-Jun-14 16:35N 55°58' W 004°51'111.0
2019-Jun-14 16:29N 55°57' W 004°53'0 0.1
2019-Jun-14 15:29N 55°57' W 004°53'1 0.8
2019-Jun-14 14:07N 55°58' W 004°51'110.1
2019-Jun-14 13:59N 55°57' W 004°54'2 2.6
2019-Jun-14 13:10N 55°58' W 004°50'210.4
2019-Jun-14 13:00N 55°57' W 004°53'0 0.3
2019-Jun-14 11:31N 55°57' W 004°52'010.8
2019-Jun-14 11:29N 55°57' W 004°53'1 0.9
2019-Jun-14 10:34N 55°58' W 004°51'110.9
2019-Jun-14 10:26N 55°57' W 004°54'1 1.0
2019-Jun-14 09:31N 55°57' W 004°52'011.4
2019-Jun-14 09:30N 55°57' W 004°53'2 2.4
2019-Jun-14 08:41N 55°58' W 004°49'210.9
2019-Jun-14 08:28N 55°57' W 004°53'1 0.7
2019-Jun-14 07:32N 55°57' W 004°52'111.2
2019-Jun-14 07:29N 55°57' W 004°53'1 1.0
2019-Jun-14 06:29N 55°58' W 004°51'1 0.1
2019-Jun-13 20:57N 55°58' W 004°50'1 0.4
2019-Jun-13 19:33N 55°58' W 004°51'110.8
2019-Jun-13 19:30N 55°57' W 004°52'1 0.9
2019-Jun-13 18:35N 55°58' W 004°51'110.9
2019-Jun-13 18:28N 55°57' W 004°53'2 3.1
2019-Jun-13 17:57N 55°58' W 004°50'1 2.6
2019-Jun-13 17:30N 55°57' W 004°52'1 0.8
2019-Jun-13 16:34N 55°58' W 004°51'110.8
2019-Jun-13 16:28N 55°57' W 004°53'1 1.2
2019-Jun-13 15:35N 55°58' W 004°51'110.6
2019-Jun-13 15:28N 55°57' W 004°53'1 0.2
2019-Jun-13 11:34N 55°57' W 004°52'110.3
2019-Jun-13 11:30N 55°57' W 004°53'1 1.1
2019-Jun-13 10:36N 55°58' W 004°51'110.0
2019-Jun-13 10:29N 55°57' W 004°53'0 0.5
2019-Jun-13 09:32N 55°57' W 004°52'010.2
2019-Jun-13 09:30N 55°57' W 004°53'1 1.2
2019-Jun-13 08:37N 55°57' W 004°51'1 9.8
2019-Jun-13 08:30N 55°57' W 004°53'1 1.4
2019-Jun-13 07:38N 55°57' W 004°51'1 9.9
2019-Jun-13 07:30N 55°57' W 004°53'1 2.3
2019-Jun-13 07:00N 55°58' W 004°51'1 1.6
2019-Jun-13 06:26N 55°57' W 004°52'0 0.4
2019-Jun-13 05:59N 55°57' W 004°53'1 0.1
2019-Jun-12 20:55N 55°58' W 004°51'1 1.1
2019-Jun-12 20:21N 55°57' W 004°52'1 0.6
2019-Jun-12 19:29N 55°57' W 004°53'0 0.3
2019-Jun-12 18:27N 55°57' W 004°53'1 1.3
2019-Jun-12 17:33N 55°57' W 004°51'010.0
2019-Jun-12 17:30N 55°57' W 004°52'1 1.8
2019-Jun-12 16:59N 55°58' W 004°51'1 2.4
2019-Jun-12 16:30N 55°57' W 004°53'0 0.5
2019-Jun-12 15:32N 55°57' W 004°52'010.1
2019-Jun-12 15:30N 55°57' W 004°52'1 1.1
2019-Jun-12 14:09N 55°58' W 004°50'2 9.9
2019-Jun-12 14:00N 55°57' W 004°53'1 0.8
2019-Jun-12 13:05N 55°57' W 004°51'1 9.5
2019-Jun-12 13:00N 55°57' W 004°53'1 0.9
2019-Jun-12 11:37N 55°57' W 004°51'1 9.8
2019-Jun-12 11:29N 55°57' W 004°53'2 2.8
2019-Jun-12 10:56N 55°58' W 004°50'1 3.4
2019-Jun-12 10:30N 55°57' W 004°53'1 2.2
2019-Jun-12 09:57N 55°58' W 004°51'1 2.8
2019-Jun-12 09:30N 55°57' W 004°53'2 2.3
2019-Jun-12 08:41N 55°58' W 004°50'2 9.9
2019-Jun-12 08:29N 55°57' W 004°53'1 1.3
2019-Jun-12 07:36N 55°57' W 004°51'1 9.8
2019-Jun-12 07:30N 55°57' W 004°53'2 2.3
2019-Jun-12 06:36N 55°58' W 004°49'110.5
2019-Jun-12 06:29N 55°57' W 004°51'1 0.8
2019-Jun-12 05:52N 55°58' W 004°50'1 0.1
2019-Jun-11 20:51N 55°57' W 004°52'1 1.9
2019-Jun-11 20:24N 55°58' W 004°52'1 0.9
2019-Jun-11 19:31N 55°57' W 004°52'010.1
2019-Jun-11 19:30N 55°57' W 004°53'1 1.0
2019-Jun-11 18:35N 55°58' W 004°51'110.1
2019-Jun-11 18:28N 55°57' W 004°53'1 1.6
2019-Jun-11 17:37N 55°58' W 004°51'1 9.6
2019-Jun-11 17:29N 55°57' W 004°53'1 0.5
2019-Jun-11 16:32N 55°57' W 004°52'010.1
2019-Jun-11 16:30N 55°57' W 004°53'0 0.2
2019-Jun-11 15:31N 55°57' W 004°52'010.4
2019-Jun-11 15:29N 55°57' W 004°53'1 0.3
2019-Jun-11 14:01N 55°57' W 004°52'110.2
2019-Jun-11 13:58N 55°57' W 004°53'2 3.0
2019-Jun-11 13:28N 55°58' W 004°51'2 2.9
2019-Jun-11 12:56N 55°57' W 004°53'1 0.6
2019-Jun-11 11:31N 55°57' W 004°52'011.1
2019-Jun-11 11:29N 55°57' W 004°52'1 1.6
2019-Jun-11 10:38N 55°58' W 004°50'110.8
2019-Jun-11 10:30N 55°57' W 004°52'1 1.6
2019-Jun-11 10:00N 55°58' W 004°51'1 1.8
2019-Jun-11 09:30N 55°57' W 004°53'1 0.8
2019-Jun-11 08:34N 55°57' W 004°51'110.1
2019-Jun-11 08:29N 55°57' W 004°53'1 1.2
2019-Jun-11 07:35N 55°58' W 004°51'110.6
2019-Jun-11 07:30N 55°57' W 004°53'1 1.1
2019-Jun-11 06:31N 55°58' W 004°51'011.2
2019-Jun-11 06:30N 55°57' W 004°51'1 2.3
2019-Jun-11 06:00N 55°57' W 004°53'1 0.1
2019-Jun-10 20:51N 55°57' W 004°52'1 1.0
2019-Jun-10 19:38N 55°58' W 004°50'1 9.8
2019-Jun-10 19:29N 55°57' W 004°53'0 0.1
2019-Jun-10 18:30N 55°57' W 004°53'0 0.5
2019-Jun-10 17:32N 55°57' W 004°52'110.0
2019-Jun-10 17:28N 55°57' W 004°53'2 1.8
2019-Jun-10 16:38N 55°58' W 004°50'210.0
2019-Jun-10 16:28N 55°57' W 004°53'1 1.4
2019-Jun-10 15:36N 55°58' W 004°51'210.3
2019-Jun-10 15:24N 55°57' W 004°54'3 1.3
2019-Jun-10 13:10N 55°58' W 004°49'210.5
2019-Jun-10 12:58N 55°57' W 004°53'1 0.5
2019-Jun-10 11:32N 55°57' W 004°52'110.3
2019-Jun-10 11:29N 55°57' W 004°52'2 2.4
2019-Jun-10 10:41N 55°58' W 004°49'210.2
2019-Jun-10 10:29N 55°57' W 004°53'1 1.5
2019-Jun-10 10:00N 55°58' W 004°52'1 1.6
2019-Jun-10 09:29N 55°57' W 004°53'1 1.3
2019-Jun-10 08:35N 55°58' W 004°51'110.7
2019-Jun-10 08:29N 55°57' W 004°53'1 2.0
2019-Jun-10 07:57N 55°58' W 004°51'1 1.8
2019-Jun-10 07:30N 55°57' W 004°52'1 0.8
2019-Jun-10 06:30N 55°58' W 004°51'1 2.0
2019-Jun-10 05:58N 55°57' W 004°53'1 0.1
2019-Jun-09 15:06N 55°58' W 004°50'111.0
2019-Jun-09 14:59N 55°57' W 004°53'1 0.8
2019-Jun-09 13:55N 55°57' W 004°54'1 1.6
2019-Jun-09 13:02N 55°57' W 004°52'011.5
2019-Jun-09 13:00N 55°57' W 004°52'2 0.1
2019-Jun-08 20:40N 55°57' W 004°55'2 2.0
2019-Jun-08 19:33N 55°58' W 004°51'110.4
2019-Jun-08 19:30N 55°57' W 004°52'1 0.6
2019-Jun-08 18:27N 55°57' W 004°53'1 0.8
2019-Jun-08 17:32N 55°57' W 004°52'010.2
2019-Jun-08 17:29N 55°57' W 004°53'1 1.5
2019-Jun-08 16:36N 55°58' W 004°51'210.4
2019-Jun-08 16:26N 55°57' W 004°54'2 1.8
2019-Jun-08 15:35N 55°58' W 004°51'110.5
2019-Jun-08 15:31N 55°57' W 004°52'1 0.2
2019-Jun-08 11:33N 55°58' W 004°51'110.8
2019-Jun-08 11:30N 55°57' W 004°52'1 2.0
2019-Jun-08 10:58N 55°58' W 004°51'1 2.8
2019-Jun-08 10:28N 55°57' W 004°53'2 2.8
2019-Jun-08 09:40N 55°58' W 004°49'210.9
2019-Jun-08 09:30N 55°57' W 004°52'2 2.1
2019-Jun-08 08:40N 55°58' W 004°49'211.1
2019-Jun-08 08:27N 55°57' W 004°53'2 3.5
2019-Jun-08 07:58N 55°58' W 004°51'1 2.9
2019-Jun-08 07:28N 55°57' W 004°53'1 1.1
2019-Jun-08 06:29N 55°57' W 004°51'0 0.0
2019-Jun-07 20:55N 55°57' W 004°51'2 5.0
2019-Jun-07 20:30N 55°57' W 004°55'2 2.5
2019-Jun-07 19:36N 55°58' W 004°51'1 9.9
2019-Jun-07 19:30N 55°57' W 004°52'1 1.4
2019-Jun-07 18:38N 55°58' W 004°50'1 9.3
2019-Jun-07 18:30N 55°57' W 004°52'2 2.4
2019-Jun-07 17:43N 55°58' W 004°49'2 9.5
2019-Jun-07 17:30N 55°57' W 004°53'1 1.3
2019-Jun-07 16:37N 55°58' W 004°51'1 9.6
2019-Jun-07 16:29N 55°57' W 004°53'2 2.5
2019-Jun-07 15:42N 55°58' W 004°49'2 9.6
2019-Jun-07 15:27N 55°57' W 004°53'1 1.1
2019-Jun-07 14:06N 55°58' W 004°51'2 9.9
2019-Jun-07 13:57N 55°57' W 004°53'2 1.9
2019-Jun-07 13:06N 55°58' W 004°51'110.3
2019-Jun-07 12:59N 55°57' W 004°53'0 0.2
2019-Jun-07 11:30N 55°57' W 004°52'0 0.1
2019-Jun-07 10:29N 55°57' W 004°53'1 1.5
2019-Jun-07 09:36N 55°58' W 004°50'110.7
2019-Jun-07 09:30N 55°57' W 004°52'0 0.4
2019-Jun-07 08:33N 55°58' W 004°52'110.5
2019-Jun-07 08:29N 55°57' W 004°53'2 1.8
2019-Jun-07 07:39N 55°58' W 004°50'2 9.8
2019-Jun-07 07:26N 55°57' W 004°54'2 2.9
2019-Jun-07 06:35N 55°58' W 004°50'210.0
2019-Jun-07 06:25N 55°57' W 004°52'1 0.1
2019-Jun-06 20:56N 55°58' W 004°50'2 1.3
2019-Jun-06 19:25N 55°57' W 004°54'0 0.2
2019-Jun-06 18:27N 55°57' W 004°53'0 0.5
2019-Jun-06 17:28N 55°57' W 004°53'2 2.9
2019-Jun-06 16:57N 55°58' W 004°51'2 3.1
2019-Jun-06 16:28N 55°57' W 004°53'2 2.8
2019-Jun-06 15:41N 55°58' W 004°49'210.4
2019-Jun-06 15:29N 55°57' W 004°53'  

Dump ship's entire track history